Time;durP1;ratioP1;P1;durP2;ratioP2;P2;SDS_P1;SDS_P2;PMS_P1;PMS_P2;Temp;Humidity;BMP_temperature;BMP_pressure;BME280_temperature;BME280_humidity;BME280_pressure;Samples;Min_cycle;Max_cycle;Signal;HPM_P1;HPM_P2
2024/01/05 00:01:51;;;;;;;;;;;11.70;90.40;;;;;;5029021;28;19910;-81
2024/01/05 00:04:16;;;;;;;;;;;11.70;90.30;;;;;;5013794;28;19968;-79
2024/01/05 00:06:42;;;;;;;;;;;11.70;90.30;;;;;;5027979;28;19960;-81
2024/01/05 00:09:07;;;;;;;;;;;11.70;90.60;;;;;;5028780;28;20374;-81
2024/01/05 00:11:33;;;;;;;;;;;11.80;90.40;;;;;;5029028;28;20271;-81
2024/01/05 00:13:58;;;;;;;;;;;11.70;90.30;;;;;;5013488;28;19916;-79
2024/01/05 00:16:24;;;;;;;;;;;11.70;90.30;;;;;;5028508;28;19916;-81
2024/01/05 00:18:49;;;;;;;;;;;11.70;90.40;;;;;;5013533;28;19909;-81
2024/01/05 00:21:25;;;;;;;;;;;11.70;90.40;;;;;;5012859;28;19910;-82
2024/01/05 00:23:52;;;;;;;;;;;11.70;90.40;;;;;;5013041;28;19985;-81
2024/01/05 00:26:17;;;;;;;;;;;11.70;90.30;;;;;;5013020;28;20000;-81
2024/01/05 00:28:43;;;;;;;;;;;11.70;90.40;;;;;;5014022;28;20372;-80
2024/01/05 00:31:10;;;;;;;;;;;11.70;90.40;;;;;;5017636;28;19956;-81
2024/01/05 00:33:36;;;;;;;;;;;11.60;90.30;;;;;;5018433;28;20313;-80
2024/01/05 00:36:02;;;;;;;;;;;11.70;90.40;;;;;;5033321;28;20008;-79
2024/01/05 00:38:28;;;;;;;;;;;11.70;90.40;;;;;;5032403;28;19936;-79
2024/01/05 00:40:53;;;;;;;;;;;11.70;90.40;;;;;;5017431;28;19960;-80
2024/01/05 00:43:18;;;;;;;;;;;11.70;90.40;;;;;;5032767;28;19967;-79
2024/01/05 00:45:44;;;;;;;;;;;11.70;90.40;;;;;;5032351;28;19963;-79
2024/01/05 00:48:09;;;;;;;;;;;11.70;90.40;;;;;;5032216;28;19959;-81
2024/01/05 00:50:35;;;;;;;;;;;11.70;90.40;;;;;;5032290;28;19959;-81
2024/01/05 00:53:00;;;;;;;;;;;11.70;90.40;;;;;;5032515;28;19944;-81
2024/01/05 00:55:26;;;;;;;;;;;11.70;90.40;;;;;;5032622;28;19909;-81
2024/01/05 00:57:51;;;;;;;;;;;11.70;90.40;;;;;;5032262;28;19910;-81
2024/01/05 01:00:17;;;;;;;;;;;11.70;90.40;;;;;;5032296;28;20525;-81
2024/01/05 01:02:42;;;;;;;;;;;11.70;90.40;;;;;;5032699;28;20039;-81
2024/01/05 01:05:08;;;;;;;;;;;11.70;90.40;;;;;;5032152;28;20362;-81
2024/01/05 01:07:33;;;;;;;;;;;11.70;90.30;;;;;;5014484;28;19913;-81
2024/01/05 01:09:59;;;;;;;;;;;11.70;90.30;;;;;;5031950;28;19991;-81
2024/01/05 01:12:25;;;;;;;;;;;11.60;90.30;;;;;;5031903;28;19909;-81
2024/01/05 01:14:50;;;;;;;;;;;11.70;90.40;;;;;;5015189;28;19916;-81
2024/01/05 01:17:16;;;;;;;;;;;11.70;90.40;;;;;;5031429;28;20010;-82
2024/01/05 01:19:41;;;;;;;;;;;11.70;90.30;;;;;;5031456;28;19909;-81
2024/01/05 01:22:07;;;;;;;;;;;11.70;90.30;;;;;;5031710;28;19910;-82
2024/01/05 01:24:32;;;;;;;;;;;11.70;90.40;;;;;;5031573;28;20369;-80
2024/01/05 01:26:57;;;;;;;;;;;11.70;90.40;;;;;;5031285;28;20012;-81
2024/01/05 01:29:24;;;;;;;;;;;11.60;90.30;;;;;;5031592;28;19916;-81
2024/01/05 01:31:50;;;;;;;;;;;11.70;90.30;;;;;;5031815;28;19915;-81
2024/01/05 01:34:16;;;;;;;;;;;11.70;90.30;;;;;;5031857;28;20285;-81
2024/01/05 01:36:41;;;;;;;;;;;11.70;90.30;;;;;;5031438;28;19909;-81
2024/01/05 01:39:06;;;;;;;;;;;11.70;90.30;;;;;;5031329;28;19959;-81
2024/01/05 01:41:32;;;;;;;;;;;11.70;90.30;;;;;;5030022;28;19959;-81
2024/01/05 01:43:57;;;;;;;;;;;11.70;90.30;;;;;;5031251;28;19910;-81
2024/01/05 01:46:23;;;;;;;;;;;11.70;90.30;;;;;;5030942;28;20011;-81
2024/01/05 01:48:49;;;;;;;;;;;11.70;90.30;;;;;;5030970;28;19914;-81
2024/01/05 01:51:14;;;;;;;;;;;11.70;90.30;;;;;;5014718;28;20439;-81
2024/01/05 01:53:40;;;;;;;;;;;11.70;90.30;;;;;;5031049;28;19913;-81
2024/01/05 01:56:10;;;;;;;;;;;11.70;90.30;;;;;;5014349;28;19916;-81
2024/01/05 01:58:37;;;;;;;;;;;11.70;90.30;;;;;;5014396;28;19944;-81
2024/01/05 02:01:03;;;;;;;;;;;11.70;90.40;;;;;;5014136;28;19910;-81
2024/01/05 02:03:28;;;;;;;;;;;11.70;90.30;;;;;;5030311;28;19931;-81
2024/01/05 02:05:54;;;;;;;;;;;11.70;90.40;;;;;;5030413;28;19957;-81
2024/01/05 02:08:20;;;;;;;;;;;11.70;90.40;;;;;;5014176;28;19960;-81
2024/01/05 02:10:46;;;;;;;;;;;11.70;90.40;;;;;;5014339;28;19909;-81
2024/01/05 02:13:11;;;;;;;;;;;11.70;90.30;;;;;;5030152;28;19910;-80
2024/01/05 02:15:36;;;;;;;;;;;11.70;90.30;;;;;;5030471;28;19917;-81
2024/01/05 02:18:09;;;;;;;;;;;11.70;90.30;;;;;;5029955;28;19913;-81
2024/01/05 02:20:35;;;;;;;;;;;11.70;90.30;;;;;;5013994;28;19916;-81
2024/01/05 02:23:02;;;;;;;;;;;11.70;90.30;;;;;;5030139;28;19910;-81
2024/01/05 02:25:28;;;;;;;;;;;11.70;90.30;;;;;;5013897;28;19914;-81
2024/01/05 02:27:53;;;;;;;;;;;11.70;90.30;;;;;;5029930;28;20068;-81
2024/01/05 02:30:19;;;;;;;;;;;11.70;90.30;;;;;;5030325;28;19909;-81
2024/01/05 02:32:45;;;;;;;;;;;11.70;90.30;;;;;;5013490;28;19910;-81
2024/01/05 02:35:10;;;;;;;;;;;11.70;90.60;;;;;;5029823;28;19913;-80
2024/01/05 02:37:36;;;;;;;;;;;11.70;90.30;;;;;;5029842;28;19918;-81
2024/01/05 02:40:02;;;;;;;;;;;11.70;90.30;;;;;;5029709;28;19957;-80
2024/01/05 02:42:27;;;;;;;;;;;11.70;90.30;;;;;;5029817;28;19913;-80
2024/01/05 02:44:53;;;;;;;;;;;11.70;90.30;;;;;;5029689;28;19909;-80
2024/01/05 02:47:18;;;;;;;;;;;11.60;90.30;;;;;;5029485;28;19918;-80
2024/01/05 02:49:43;;;;;;;;;;;11.70;90.30;;;;;;5029738;28;19910;-80
2024/01/05 02:52:09;;;;;;;;;;;11.70;90.30;;;;;;5029527;28;20321;-81
2024/01/05 02:54:34;;;;;;;;;;;11.70;90.30;;;;;;5014254;28;20370;-81
2024/01/05 02:57:00;;;;;;;;;;;11.70;90.30;;;;;;5029210;28;19909;-80
2024/01/05 02:59:25;;;;;;;;;;;11.70;90.30;;;;;;5029341;28;19910;-81
2024/01/05 03:01:50;;;;;;;;;;;11.70;90.30;;;;;;5029223;28;19909;-81
2024/01/05 03:04:16;;;;;;;;;;;11.60;90.30;;;;;;5029423;28;20291;-80
2024/01/05 03:06:41;;;;;;;;;;;11.70;90.30;;;;;;5029271;28;19917;-80
2024/01/05 03:09:08;;;;;;;;;;;11.70;90.30;;;;;;5014314;28;19934;-81
2024/01/05 03:11:35;;;;;;;;;;;11.70;90.30;;;;;;5029302;28;19916;-80
2024/01/05 03:14:00;;;;;;;;;;;11.70;90.30;;;;;;5012444;28;19956;-80
2024/01/05 03:16:26;;;;;;;;;;;11.70;90.30;;;;;;5029093;28;19913;-81
2024/01/05 03:18:52;;;;;;;;;;;11.70;90.30;;;;;;5029024;28;20004;-80
2024/01/05 03:21:17;;;;;;;;;;;11.70;90.30;;;;;;5029311;28;20388;-80
2024/01/05 03:23:42;;;;;;;;;;;11.70;90.30;;;;;;5029158;28;20428;-82
2024/01/05 03:26:08;;;;;;;;;;;11.70;90.30;;;;;;5028800;28;19932;-81
2024/01/05 03:28:35;;;;;;;;;;;11.70;90.30;;;;;;5012632;28;19920;-81
2024/01/05 03:31:00;;;;;;;;;;;11.70;90.30;;;;;;5012415;28;20282;-80
2024/01/05 03:33:26;;;;;;;;;;;11.60;90.30;;;;;;5028708;28;19910;-80
2024/01/05 03:35:51;;;;;;;;;;;11.70;90.30;;;;;;5029196;28;19910;-81
2024/01/05 03:38:17;;;;;;;;;;;11.60;90.30;;;;;;5013890;28;19925;-81
2024/01/05 03:40:42;;;;;;;;;;;11.70;90.30;;;;;;5028900;28;19916;-81
2024/01/05 03:43:08;;;;;;;;;;;11.60;90.50;;;;;;5028643;28;20003;-81
2024/01/05 03:45:33;;;;;;;;;;;11.70;90.30;;;;;;5028952;28;20376;-81
2024/01/05 03:47:59;;;;;;;;;;;11.70;90.30;;;;;;5028652;28;19936;-81
2024/01/05 03:50:25;;;;;;;;;;;11.70;90.30;;;;;;5028917;28;20290;-80
2024/01/05 03:52:50;;;;;;;;;;;11.70;90.30;;;;;;5029100;28;20374;-81
2024/01/05 03:55:16;;;;;;;;;;;11.70;90.30;;;;;;5033482;28;19909;-81
2024/01/05 03:57:41;;;;;;;;;;;11.70;90.30;;;;;;5023128;28;19917;-80
2024/01/05 04:00:07;;;;;;;;;;;11.60;90.30;;;;;;5033044;28;19916;-81
2024/01/05 04:02:33;;;;;;;;;;;11.60;90.30;;;;;;5032101;28;19936;-81
2024/01/05 04:04:58;;;;;;;;;;;11.70;90.30;;;;;;5031264;28;20374;-80
2024/01/05 04:07:23;;;;;;;;;;;11.60;90.30;;;;;;5031764;28;19913;-81
2024/01/05 04:09:50;;;;;;;;;;;11.70;90.30;;;;;;5031722;28;19909;-80
2024/01/05 04:12:17;;;;;;;;;;;11.60;90.30;;;;;;5032070;28;20366;-81
2024/01/05 04:14:44;;;;;;;;;;;11.70;90.30;;;;;;5032176;28;20008;-81
2024/01/05 04:17:09;;;;;;;;;;;11.70;90.30;;;;;;5031512;28;20369;-80
2024/01/05 04:19:35;;;;;;;;;;;11.70;90.30;;;;;;5031688;28;19909;-81
2024/01/05 04:22:00;;;;;;;;;;;11.60;90.30;;;;;;5031759;28;19917;-80
2024/01/05 04:24:26;;;;;;;;;;;11.70;90.30;;;;;;5031954;28;20587;-80
2024/01/05 04:26:51;;;;;;;;;;;11.60;90.30;;;;;;5031587;28;20278;-81
2024/01/05 04:29:16;;;;;;;;;;;11.60;90.30;;;;;;5031789;28;20389;-80
2024/01/05 04:31:42;;;;;;;;;;;11.70;90.30;;;;;;5032061;28;19963;-81
2024/01/05 04:34:07;;;;;;;;;;;11.60;90.30;;;;;;5031983;28;19960;-81
2024/01/05 04:36:33;;;;;;;;;;;11.70;90.30;;;;;;5031536;28;20374;-81
2024/01/05 04:38:58;;;;;;;;;;;11.70;90.30;;;;;;5031658;28;19918;-80
2024/01/05 04:41:25;;;;;;;;;;;11.70;90.30;;;;;;5031553;28;19909;-81
2024/01/05 04:43:50;;;;;;;;;;;11.70;90.30;;;;;;5031323;28;19909;-81
2024/01/05 04:46:16;;;;;;;;;;;11.70;90.30;;;;;;5031603;28;19916;-81
2024/01/05 04:48:42;;;;;;;;;;;11.60;90.30;;;;;;5031388;28;19913;-81
2024/01/05 04:51:07;;;;;;;;;;;11.70;90.30;;;;;;5031538;28;19939;-81
2024/01/05 04:53:33;;;;;;;;;;;11.70;90.30;;;;;;5032673;28;19963;-81
2024/01/05 04:55:58;;;;;;;;;;;11.70;90.30;;;;;;5031089;28;19909;-81
2024/01/05 04:58:24;;;;;;;;;;;11.70;90.30;;;;;;5031569;28;19909;-80
2024/01/05 05:00:49;;;;;;;;;;;11.70;90.30;;;;;;5031105;28;19915;-81
2024/01/05 05:03:15;;;;;;;;;;;11.70;90.30;;;;;;5031684;28;19909;-81
2024/01/05 05:05:40;;;;;;;;;;;11.70;90.30;;;;;;5031518;28;19909;-80
2024/01/05 05:08:10;;;;;;;;;;;11.60;90.30;;;;;;5030966;28;20328;-80
2024/01/05 05:10:37;;;;;;;;;;;11.70;90.30;;;;;;5031225;28;19916;-80
2024/01/05 05:13:02;;;;;;;;;;;11.70;90.30;;;;;;5032562;28;20004;-80
2024/01/05 05:15:27;;;;;;;;;;;11.70;90.30;;;;;;5031536;28;19960;-81
2024/01/05 05:17:53;;;;;;;;;;;11.70;90.30;;;;;;5034397;28;19919;-80
2024/01/05 05:20:18;;;;;;;;;;;11.60;90.30;;;;;;5034579;28;20292;-81
2024/01/05 05:22:44;;;;;;;;;;;11.60;90.30;;;;;;5034602;28;19909;-82
2024/01/05 05:25:09;;;;;;;;;;;11.70;90.30;;;;;;5034708;28;19913;-81
2024/01/05 05:27:34;;;;;;;;;;;11.60;90.20;;;;;;5034364;28;19917;-80
2024/01/05 05:30:04;;;;;;;;;;;11.70;90.30;;;;;;5034571;28;19966;-81
2024/01/05 05:32:51;;;;;;;;;;;11.70;90.30;;;;;;5035349;28;19916;-81
2024/01/05 05:36:05;;;;;;;;;;;11.70;90.30;;;;;;5037787;28;19909;-80
2024/01/05 05:52:58;;;;;;;;;;;11.60;90.30;;;;;;4953485;29;20004;-78
2024/01/05 06:08:13;;;;;;;;;;;11.60;90.30;;;;;;4953814;29;20343;-79
2024/01/05 06:10:38;;;;;;;;;;;11.60;90.30;;;;;;4938650;28;19918;-79
2024/01/05 06:13:04;;;;;;;;;;;12.00;90.40;;;;;;4941284;29;19961;-78
2024/01/05 06:15:45;;;;;;;;;;;;;;;;;;;;;
2024/01/05 06:18:11;;;;;;;;;;;11.60;90.30;;;;;;5053938;28;19915;-79
2024/01/05 06:20:43;;;;;;;;;;;11.60;90.30;;;;;;5036847;28;20000;-78
2024/01/05 06:23:08;;;;;;;;;;;11.80;90.30;;;;;;5035378;28;19920;-81
2024/01/05 06:25:39;;;;;;;;;;;11.80;90.40;;;;;;5037784;28;19913;-78
2024/01/05 06:28:10;;;;;;;;;;;11.70;90.30;;;;;;5039009;28;20011;-79
2024/01/05 06:30:56;;;;;;;;;;;11.70;90.30;;;;;;5036472;28;20361;-78
2024/01/05 06:33:22;;;;;;;;;;;11.70;90.30;;;;;;5042499;28;20384;-79
2024/01/05 06:36:03;;;;;;;;;;;11.60;90.30;;;;;;5041171;28;19924;-79
2024/01/05 06:38:28;;;;;;;;;;;11.60;90.30;;;;;;5038022;28;19940;-79
2024/01/05 06:40:54;;;;;;;;;;;11.60;90.30;;;;;;5037394;28;20242;-78
2024/01/05 06:43:19;;;;;;;;;;;11.70;90.30;;;;;;5037273;28;20007;-79
2024/01/05 06:45:44;;;;;;;;;;;11.70;90.30;;;;;;5037553;28;19909;-80
2024/01/05 06:48:12;;;;;;;;;;;11.80;90.30;;;;;;5037228;28;19917;-81
2024/01/05 06:50:38;;;;;;;;;;;11.80;90.30;;;;;;5036860;28;19921;-79
2024/01/05 06:53:03;;;;;;;;;;;11.70;90.30;;;;;;5055155;28;19915;-81
2024/01/05 06:55:34;;;;;;;;;;;11.70;90.20;;;;;;5037599;28;19975;-78
2024/01/05 06:58:18;;;;;;;;;;;11.80;90.30;;;;;;5039417;28;19912;-80
2024/01/05 07:00:43;;;;;;;;;;;11.70;90.20;;;;;;5037102;28;19909;-80
2024/01/05 07:03:09;;;;;;;;;;;11.70;90.20;;;;;;5036191;28;19909;-80
2024/01/05 07:05:34;;;;;;;;;;;11.60;90.20;;;;;;5036707;28;19931;-80
2024/01/05 07:08:00;;;;;;;;;;;11.60;90.30;;;;;;5035952;28;20352;-80
2024/01/05 07:10:25;;;;;;;;;;;11.70;90.30;;;;;;5035755;28;19915;-80
2024/01/05 07:12:52;;;;;;;;;;;11.60;90.30;;;;;;5035914;28;19909;-80
2024/01/05 07:15:17;;;;;;;;;;;11.70;90.30;;;;;;5036042;28;20401;-80
2024/01/05 07:17:42;;;;;;;;;;;11.60;90.30;;;;;;5036004;28;19959;-80
2024/01/05 07:20:11;;;;;;;;;;;11.60;90.30;;;;;;5035924;28;19967;-80
2024/01/05 07:22:37;;;;;;;;;;;11.60;90.30;;;;;;5035658;28;19909;-80
2024/01/05 07:25:02;;;;;;;;;;;11.60;90.30;;;;;;5035732;28;19959;-80
2024/01/05 07:27:28;;;;;;;;;;;11.60;90.30;;;;;;5035628;28;19912;-81
2024/01/05 07:29:55;;;;;;;;;;;11.60;90.30;;;;;;5035828;28;19954;-80
2024/01/05 07:32:20;;;;;;;;;;;11.60;90.30;;;;;;5036138;28;19916;-80
2024/01/05 07:34:46;;;;;;;;;;;11.60;90.30;;;;;;5035822;28;19909;-80
2024/01/05 07:37:12;;;;;;;;;;;11.60;90.30;;;;;;5035581;28;20014;-80
2024/01/05 07:39:38;;;;;;;;;;;11.60;90.30;;;;;;5034759;28;20408;-80
2024/01/05 07:42:03;;;;;;;;;;;11.60;90.30;;;;;;5035663;28;19909;-80
2024/01/05 07:44:29;;;;;;;;;;;11.60;90.30;;;;;;5035890;28;20440;-80
2024/01/05 07:46:54;;;;;;;;;;;11.70;90.30;;;;;;5035306;28;19948;-80
2024/01/05 07:49:19;;;;;;;;;;;11.60;90.30;;;;;;5035445;28;20007;-80
2024/01/05 07:51:45;;;;;;;;;;;11.70;90.30;;;;;;5035875;28;19908;-80
2024/01/05 07:54:10;;;;;;;;;;;11.60;90.30;;;;;;5035656;28;19909;-80
2024/01/05 07:56:36;;;;;;;;;;;11.60;90.30;;;;;;5035285;28;20274;-81
2024/01/05 07:59:02;;;;;;;;;;;11.60;90.30;;;;;;5035598;28;19970;-81
2024/01/05 08:01:27;;;;;;;;;;;11.70;90.30;;;;;;5035227;28;19916;-80
2024/01/05 08:03:53;;;;;;;;;;;11.60;90.30;;;;;;5053262;28;19909;-80
2024/01/05 08:06:19;;;;;;;;;;;11.60;90.30;;;;;;5053084;28;20377;-80
2024/01/05 08:08:48;;;;;;;;;;;11.60;90.20;;;;;;5035278;28;19919;-79
2024/01/05 08:11:13;;;;;;;;;;;11.60;90.30;;;;;;5035450;28;19916;-81
2024/01/05 08:13:43;;;;;;;;;;;11.60;90.30;;;;;;5035294;28;19908;-79
2024/01/05 08:16:08;;;;;;;;;;;11.60;90.30;;;;;;5035420;28;20606;-79
2024/01/05 08:18:34;;;;;;;;;;;11.60;90.20;;;;;;5035277;28;19924;-81
2024/01/05 08:21:00;;;;;;;;;;;11.60;90.30;;;;;;5035144;28;20000;-81
2024/01/05 08:23:25;;;;;;;;;;;11.60;90.30;;;;;;5035115;28;19940;-80
2024/01/05 08:25:51;;;;;;;;;;;11.60;90.30;;;;;;5035145;28;19909;-79
2024/01/05 08:28:16;;;;;;;;;;;11.60;90.30;;;;;;5035219;28;20369;-80
2024/01/05 08:30:42;;;;;;;;;;;11.60;90.20;;;;;;5035193;28;19955;-80
2024/01/05 08:33:07;;;;;;;;;;;11.60;90.20;;;;;;5035199;28;20431;-79
2024/01/05 08:35:33;;;;;;;;;;;11.60;90.20;;;;;;5035230;28;19947;-79
2024/01/05 08:37:59;;;;;;;;;;;11.60;90.20;;;;;;5052739;28;19913;-80
2024/01/05 08:40:26;;;;;;;;;;;11.70;90.20;;;;;;5034950;28;20285;-79
2024/01/05 08:42:54;;;;;;;;;;;11.80;90.20;;;;;;5035237;28;19991;-79
2024/01/05 08:45:20;;;;;;;;;;;11.80;90.10;;;;;;5035066;28;19909;-81
2024/01/05 08:47:45;;;;;;;;;;;11.80;90.00;;;;;;5052586;28;19924;-80
2024/01/05 08:50:11;;;;;;;;;;;11.80;89.80;;;;;;5035060;28;19909;-80
2024/01/05 08:52:37;;;;;;;;;;;11.80;89.90;;;;;;5038671;28;19909;-79
2024/01/05 08:55:03;;;;;;;;;;;11.80;89.90;;;;;;5038882;28;20281;-79
2024/01/05 08:57:29;;;;;;;;;;;11.80;89.90;;;;;;5038386;28;19909;-80
2024/01/05 08:59:54;;;;;;;;;;;11.70;90.00;;;;;;5038671;28;20365;-79
2024/01/05 09:02:20;;;;;;;;;;;11.80;90.00;;;;;;5038556;28;19908;-80
2024/01/05 09:04:46;;;;;;;;;;;11.70;90.00;;;;;;5038531;28;19944;-80
2024/01/05 09:07:12;;;;;;;;;;;11.70;90.10;;;;;;5055906;28;19955;-79
2024/01/05 09:09:38;;;;;;;;;;;11.70;90.10;;;;;;5038526;28;19909;-80
2024/01/05 09:12:04;;;;;;;;;;;11.80;90.10;;;;;;5038378;28;20365;-79
2024/01/05 09:14:29;;;;;;;;;;;11.80;90.10;;;;;;5056252;28;19909;-81
2024/01/05 09:16:55;;;;;;;;;;;11.70;90.00;;;;;;5038162;28;20281;-81
2024/01/05 09:19:20;;;;;;;;;;;11.70;90.10;;;;;;5038272;28;20359;-81
2024/01/05 09:21:45;;;;;;;;;;;11.70;90.10;;;;;;5038379;28;19909;-80
2024/01/05 09:24:11;;;;;;;;;;;11.80;90.10;;;;;;5038412;28;19908;-80
2024/01/05 09:26:36;;;;;;;;;;;11.60;90.10;;;;;;5038067;28;20382;-81
2024/01/05 09:29:04;;;;;;;;;;;11.70;90.10;;;;;;5038173;28;19909;-81
2024/01/05 09:31:30;;;;;;;;;;;11.70;90.10;;;;;;5038165;28;19909;-80
2024/01/05 09:33:56;;;;;;;;;;;11.70;90.10;;;;;;5038185;28;20365;-80
2024/01/05 09:36:21;;;;;;;;;;;11.80;90.10;;;;;;5038012;28;19908;-81
2024/01/05 09:38:47;;;;;;;;;;;11.80;90.10;;;;;;5037875;28;20280;-80
2024/01/05 09:41:13;;;;;;;;;;;11.80;90.10;;;;;;5037862;28;19913;-81
2024/01/05 09:43:43;;;;;;;;;;;11.70;90.10;;;;;;5038001;28;19932;-81
2024/01/05 09:46:09;;;;;;;;;;;11.70;90.00;;;;;;5037883;28;20400;-80
2024/01/05 09:48:35;;;;;;;;;;;11.70;90.00;;;;;;5037417;28;19916;-80
2024/01/05 09:51:03;;;;;;;;;;;11.70;90.00;;;;;;5037736;28;19915;-80
2024/01/05 09:53:28;;;;;;;;;;;11.70;90.10;;;;;;5037690;28;19916;-80
2024/01/05 09:55:54;;;;;;;;;;;11.70;90.00;;;;;;5055285;28;19908;-80
2024/01/05 09:58:20;;;;;;;;;;;11.70;90.10;;;;;;5037518;28;20292;-80
2024/01/05 10:00:49;;;;;;;;;;;11.70;90.10;;;;;;5037462;28;19974;-81
2024/01/05 10:03:20;;;;;;;;;;;11.70;90.10;;;;;;5036231;28;20400;-80
2024/01/05 10:05:45;;;;;;;;;;;11.70;90.00;;;;;;5055089;28;19908;-80
2024/01/05 10:08:11;;;;;;;;;;;11.70;90.00;;;;;;5037374;28;20046;-80
2024/01/05 10:10:43;;;;;;;;;;;11.70;90.00;;;;;;5037198;28;19958;-80
2024/01/05 10:13:09;;;;;;;;;;;11.70;90.00;;;;;;5037304;28;19999;-80
2024/01/05 10:15:35;;;;;;;;;;;11.70;90.00;;;;;;5037290;28;19952;-81
2024/01/05 10:18:14;;;;;;;;;;;11.70;90.00;;;;;;5037256;28;20050;-81
2024/01/05 10:20:41;;;;;;;;;;;11.70;90.00;;;;;;5054944;28;20296;-80
2024/01/05 10:23:06;;;;;;;;;;;11.70;90.00;;;;;;5037172;28;20292;-80
2024/01/05 10:25:35;;;;;;;;;;;11.70;90.00;;;;;;5037331;28;19920;-81
2024/01/05 10:28:00;;;;;;;;;;;11.70;89.90;;;;;;5036683;28;20285;-81
2024/01/05 10:30:28;;;;;;;;;;;11.70;89.80;;;;;;5037080;28;19909;-81
2024/01/05 10:33:04;;;;;;;;;;;11.70;90.00;;;;;;5037242;28;20377;-80
2024/01/05 10:35:30;;;;;;;;;;;11.70;89.90;;;;;;5036946;28;20008;-80
2024/01/05 10:38:23;;;;;;;;;;;11.60;90.00;;;;;;5036919;28;20370;-80
2024/01/05 10:40:49;;;;;;;;;;;11.70;90.00;;;;;;5031701;28;19916;-80
2024/01/05 10:43:16;;;;;;;;;;;11.70;89.90;;;;;;5036838;28;19913;-81
2024/01/05 10:45:42;;;;;;;;;;;11.70;90.00;;;;;;5053559;28;19916;-80
2024/01/05 10:48:09;;;;;;;;;;;11.70;89.90;;;;;;5053214;28;20292;-81
2024/01/05 10:50:36;;;;;;;;;;;11.80;90.00;;;;;;5037115;28;19909;-80
2024/01/05 10:53:02;;;;;;;;;;;11.80;90.00;;;;;;5017272;28;19949;-81
2024/01/05 10:55:28;;;;;;;;;;;11.70;90.00;;;;;;5016665;28;20285;-81
2024/01/05 10:57:53;;;;;;;;;;;11.70;90.00;;;;;;5017820;28;19920;-81
2024/01/05 11:00:24;;;;;;;;;;;11.70;90.00;;;;;;5036546;28;19954;-81
2024/01/05 11:02:51;;;;;;;;;;;11.70;90.00;;;;;;5036505;28;19909;-81
2024/01/05 11:05:16;;;;;;;;;;;11.70;90.00;;;;;;5054338;28;19931;-79
2024/01/05 11:07:42;;;;;;;;;;;11.80;90.20;;;;;;5036398;28;20365;-81
2024/01/05 11:10:24;;;;;;;;;;;11.70;89.90;;;;;;5053207;28;20289;-81
2024/01/05 11:12:56;;;;;;;;;;;11.70;90.00;;;;;;5052995;28;20399;-80
2024/01/05 11:15:37;;;;;;;;;;;11.70;89.70;;;;;;5036049;28;20284;-80
2024/01/05 11:18:21;;;;;;;;;;;11.70;90.00;;;;;;5036015;28;20364;-81
2024/01/05 11:21:06;;;;;;;;;;;11.80;90.00;;;;;;5053994;28;19909;-80
2024/01/05 11:23:32;;;;;;;;;;;11.80;89.90;;;;;;5036030;28;20426;-80
2024/01/05 11:25:58;;;;;;;;;;;11.90;89.40;;;;;;5052679;28;19955;-80
2024/01/05 11:28:34;;;;;;;;;;;12.00;89.30;;;;;;5053577;28;19956;-80
2024/01/05 11:31:00;;;;;;;;;;;12.00;89.00;;;;;;5052456;28;19909;-80
2024/01/05 11:33:44;;;;;;;;;;;12.00;89.00;;;;;;5035825;28;19909;-81
2024/01/05 11:36:10;;;;;;;;;;;12.00;89.20;;;;;;5052299;28;19956;-80
2024/01/05 11:38:40;;;;;;;;;;;11.90;89.20;;;;;;5052391;28;19916;-81
2024/01/05 11:41:16;;;;;;;;;;;11.90;89.80;;;;;;5052320;28;20285;-80
2024/01/05 11:43:41;;;;;;;;;;;11.90;89.40;;;;;;5052470;28;20007;-80
2024/01/05 11:46:07;;;;;;;;;;;11.90;89.60;;;;;;5035570;28;20392;-80
2024/01/05 11:48:35;;;;;;;;;;;11.80;89.60;;;;;;5053332;28;20007;-80
2024/01/05 11:51:07;;;;;;;;;;;11.80;89.60;;;;;;5035658;28;19909;-80
2024/01/05 11:53:32;;;;;;;;;;;11.80;89.70;;;;;;5051492;28;19974;-80
2024/01/05 11:56:00;;;;;;;;;;;11.80;89.70;;;;;;5034769;28;20007;-80
2024/01/05 11:58:31;;;;;;;;;;;11.80;89.70;;;;;;5051289;28;19909;-79
2024/01/05 12:00:57;;;;;;;;;;;11.80;89.70;;;;;;5051542;28;19990;-80
2024/01/05 12:03:25;;;;;;;;;;;11.80;89.80;;;;;;5034996;28;19916;-79
2024/01/05 12:05:51;;;;;;;;;;;11.80;89.70;;;;;;5034921;28;19909;-79
2024/01/05 12:08:17;;;;;;;;;;;11.80;89.70;;;;;;5034916;28;19917;-79
2024/01/05 12:10:42;;;;;;;;;;;11.80;89.70;;;;;;5034905;28;20435;-80
2024/01/05 12:13:08;;;;;;;;;;;11.80;89.70;;;;;;5034643;28;20400;-80
2024/01/05 12:15:34;;;;;;;;;;;11.80;89.80;;;;;;5052522;28;19978;-80
2024/01/05 12:18:08;;;;;;;;;;;11.80;89.80;;;;;;5034792;28;19913;-79
2024/01/05 12:20:34;;;;;;;;;;;11.80;89.80;;;;;;5034973;28;20297;-79
2024/01/05 12:23:00;;;;;;;;;;;11.80;89.80;;;;;;5034743;28;19913;-80
2024/01/05 12:25:26;;;;;;;;;;;11.80;89.80;;;;;;5035291;28;19940;-80
2024/01/05 12:27:52;;;;;;;;;;;11.80;89.80;;;;;;5038839;28;19917;-80
2024/01/05 12:30:17;;;;;;;;;;;11.80;89.70;;;;;;5039016;28;19940;-81
2024/01/05 12:32:43;;;;;;;;;;;11.80;89.80;;;;;;5039189;28;20250;-80
2024/01/05 12:35:09;;;;;;;;;;;11.80;89.80;;;;;;5039124;28;19916;-80
2024/01/05 12:37:35;;;;;;;;;;;11.80;89.80;;;;;;5038610;28;19909;-80
2024/01/05 12:40:10;;;;;;;;;;;11.80;89.90;;;;;;5038803;28;20000;-80
2024/01/05 12:42:36;;;;;;;;;;;11.80;90.00;;;;;;5038644;28;19959;-80
2024/01/05 12:45:05;;;;;;;;;;;11.80;90.00;;;;;;5038793;28;19915;-79
2024/01/05 12:47:32;;;;;;;;;;;11.80;90.00;;;;;;5038312;28;19921;-79
2024/01/05 12:49:57;;;;;;;;;;;11.80;90.00;;;;;;5038471;28;20321;-81
2024/01/05 12:52:34;;;;;;;;;;;11.80;89.70;;;;;;5038622;28;19916;-79
2024/01/05 12:54:59;;;;;;;;;;;11.80;89.80;;;;;;5038234;28;20337;-80
2024/01/05 12:57:25;;;;;;;;;;;11.80;89.90;;;;;;5037679;28;19951;-80
2024/01/05 12:59:50;;;;;;;;;;;11.80;90.00;;;;;;5038054;28;19916;-79
2024/01/05 13:02:16;;;;;;;;;;;11.80;89.90;;;;;;5038012;28;19908;-79
2024/01/05 13:04:41;;;;;;;;;;;11.80;89.90;;;;;;5038255;28;19908;-79
2024/01/05 13:07:09;;;;;;;;;;;11.80;90.00;;;;;;5037972;28;19913;-79
2024/01/05 13:09:34;;;;;;;;;;;11.80;90.00;;;;;;5037922;28;19948;-80
2024/01/05 13:12:00;;;;;;;;;;;11.80;90.00;;;;;;5038160;28;19908;-80
2024/01/05 13:14:25;;;;;;;;;;;11.80;90.00;;;;;;5038057;28;20427;-79
2024/01/05 13:16:51;;;;;;;;;;;11.80;89.90;;;;;;5037731;28;19909;-79
2024/01/05 13:19:16;;;;;;;;;;;11.80;90.00;;;;;;5038023;28;19909;-79
2024/01/05 13:21:42;;;;;;;;;;;11.80;90.00;;;;;;5037999;28;19908;-79
2024/01/05 13:24:07;;;;;;;;;;;11.80;90.00;;;;;;5038075;28;20320;-80
2024/01/05 13:26:33;;;;;;;;;;;11.70;89.90;;;;;;5037776;28;19913;-80
2024/01/05 13:28:58;;;;;;;;;;;11.80;90.00;;;;;;5037834;28;19920;-79
2024/01/05 13:31:24;;;;;;;;;;;11.80;90.00;;;;;;5037904;28;19944;-79
2024/01/05 13:33:49;;;;;;;;;;;11.80;90.00;;;;;;5037734;28;19948;-80
2024/01/05 13:36:15;;;;;;;;;;;11.80;90.00;;;;;;5037273;28;19908;-80
2024/01/05 13:38:40;;;;;;;;;;;11.70;90.00;;;;;;5037930;28;20337;-79
2024/01/05 13:41:06;;;;;;;;;;;11.80;90.00;;;;;;5037698;28;19966;-80
2024/01/05 13:43:32;;;;;;;;;;;11.80;90.00;;;;;;5037847;28;20385;-80
2024/01/05 13:45:58;;;;;;;;;;;11.80;90.00;;;;;;5037520;28;19920;-80
2024/01/05 13:48:24;;;;;;;;;;;11.80;90.00;;;;;;5037515;28;19917;-79
2024/01/05 13:50:49;;;;;;;;;;;11.70;89.90;;;;;;5037225;28;19909;-80
2024/01/05 13:53:15;;;;;;;;;;;11.80;90.00;;;;;;5037341;28;19916;-79
2024/01/05 13:55:41;;;;;;;;;;;11.70;89.90;;;;;;5037514;28;19912;-80
2024/01/05 13:58:06;;;;;;;;;;;11.70;89.80;;;;;;5054771;28;20373;-80
2024/01/05 14:00:32;;;;;;;;;;;11.70;89.80;;;;;;5037339;28;20398;-79
2024/01/05 14:02:57;;;;;;;;;;;11.70;89.90;;;;;;5037345;28;19913;-80
2024/01/05 14:05:23;;;;;;;;;;;11.80;89.70;;;;;;5037299;28;19908;-80
2024/01/05 14:07:48;;;;;;;;;;;11.70;89.60;;;;;;5036579;28;19912;-79
2024/01/05 14:10:15;;;;;;;;;;;11.70;89.80;;;;;;5036777;28;19909;-80
2024/01/05 14:12:42;;;;;;;;;;;11.70;89.60;;;;;;5037235;28;19959;-80
2024/01/05 14:15:08;;;;;;;;;;;11.70;89.50;;;;;;5037073;28;20371;-80
2024/01/05 14:17:33;;;;;;;;;;;11.70;89.20;;;;;;5036918;28;19913;-79
2024/01/05 14:19:59;;;;;;;;;;;11.70;89.40;;;;;;5036774;28;19916;-79
2024/01/05 14:22:24;;;;;;;;;;;11.70;90.00;;;;;;5036748;28;19909;-80
2024/01/05 14:24:50;;;;;;;;;;;11.70;89.60;;;;;;5037183;28;19908;-81
2024/01/05 14:27:15;;;;;;;;;;;11.70;89.60;;;;;;5038243;28;19913;-80
2024/01/05 14:29:41;;;;;;;;;;;11.70;89.50;;;;;;5054572;28;19995;-80
2024/01/05 14:32:07;;;;;;;;;;;11.70;89.30;;;;;;5036456;28;20007;-80
2024/01/05 14:34:33;;;;;;;;;;;11.70;89.60;;;;;;5036414;28;19916;-79
2024/01/05 14:36:58;;;;;;;;;;;11.70;89.60;;;;;;5036520;28;20008;-81
2024/01/05 14:39:27;;;;;;;;;;;11.70;89.70;;;;;;5034472;28;19904;-79
2024/01/05 14:41:53;;;;;;;;;;;11.70;89.60;;;;;;5055470;28;20369;-80
2024/01/05 14:44:18;;;;;;;;;;;11.70;89.50;;;;;;5055055;28;19904;-80